sensor_id;sensor_type;location;lat;lon;timestamp;P1;durP1;ratioP1;P2;durP2;ratioP2
4468;SDS011;2247;42.666;23.292;2024-01-25T00:02:26;32.97;;;18.60;;
4468;SDS011;2247;42.666;23.292;2024-01-25T00:04:53;31.33;;;17.73;;
4468;SDS011;2247;42.666;23.292;2024-01-25T00:07:20;34.03;;;18.43;;
4468;SDS011;2247;42.666;23.292;2024-01-25T00:09:48;38.80;;;18.43;;
4468;SDS011;2247;42.666;23.292;2024-01-25T00:12:15;36.37;;;17.60;;
4468;SDS011;2247;42.666;23.292;2024-01-25T00:14:42;30.77;;;17.07;;
4468;SDS011;2247;42.666;23.292;2024-01-25T00:17:09;33.40;;;18.07;;
4468;SDS011;2247;42.666;23.292;2024-01-25T00:19:36;33.90;;;17.47;;
4468;SDS011;2247;42.666;23.292;2024-01-25T00:22:03;35.03;;;18.10;;
4468;SDS011;2247;42.666;23.292;2024-01-25T00:24:30;25.07;;;15.03;;
4468;SDS011;2247;42.666;23.292;2024-01-25T00:26:58;26.17;;;13.80;;
4468;SDS011;2247;42.666;23.292;2024-01-25T00:29:25;25.17;;;13.60;;
4468;SDS011;2247;42.666;23.292;2024-01-25T00:31:52;20.87;;;13.37;;
4468;SDS011;2247;42.666;23.292;2024-01-25T00:34:19;23.53;;;13.77;;
4468;SDS011;2247;42.666;23.292;2024-01-25T00:36:46;20.33;;;13.00;;
4468;SDS011;2247;42.666;23.292;2024-01-25T00:39:14;30.30;;;14.17;;
4468;SDS011;2247;42.666;23.292;2024-01-25T00:41:41;26.43;;;13.67;;
4468;SDS011;2247;42.666;23.292;2024-01-25T00:44:14;26.07;;;14.53;;
4468;SDS011;2247;42.666;23.292;2024-01-25T00:46:42;24.80;;;14.23;;
4468;SDS011;2247;42.666;23.292;2024-01-25T00:49:12;25.70;;;13.87;;
4468;SDS011;2247;42.666;23.292;2024-01-25T00:51:39;26.70;;;15.27;;
4468;SDS011;2247;42.666;23.292;2024-01-25T00:54:13;30.67;;;15.67;;
4468;SDS011;2247;42.666;23.292;2024-01-25T00:56:41;24.93;;;14.43;;
4468;SDS011;2247;42.666;23.292;2024-01-25T00:59:08;24.40;;;13.80;;
4468;SDS011;2247;42.666;23.292;2024-01-25T01:01:38;26.33;;;14.60;;
4468;SDS011;2247;42.666;23.292;2024-01-25T01:04:07;21.83;;;13.57;;
4468;SDS011;2247;42.666;23.292;2024-01-25T01:06:35;25.17;;;13.97;;
4468;SDS011;2247;42.666;23.292;2024-01-25T01:09:02;26.93;;;15.20;;
4468;SDS011;2247;42.666;23.292;2024-01-25T01:11:29;25.03;;;14.07;;
4468;SDS011;2247;42.666;23.292;2024-01-25T01:13:56;26.60;;;14.73;;
4468;SDS011;2247;42.666;23.292;2024-01-25T01:16:23;27.70;;;14.07;;
4468;SDS011;2247;42.666;23.292;2024-01-25T01:18:52;22.93;;;13.93;;
4468;SDS011;2247;42.666;23.292;2024-01-25T01:21:19;23.27;;;13.80;;
4468;SDS011;2247;42.666;23.292;2024-01-25T01:23:46;23.57;;;13.40;;
4468;SDS011;2247;42.666;23.292;2024-01-25T01:26:13;20.30;;;12.63;;
4468;SDS011;2247;42.666;23.292;2024-01-25T01:28:40;21.23;;;12.27;;
4468;SDS011;2247;42.666;23.292;2024-01-25T01:31:07;24.60;;;12.57;;
4468;SDS011;2247;42.666;23.292;2024-01-25T01:33:34;25.20;;;13.73;;
4468;SDS011;2247;42.666;23.292;2024-01-25T01:36:02;25.10;;;13.50;;
4468;SDS011;2247;42.666;23.292;2024-01-25T01:38:29;23.93;;;13.63;;
4468;SDS011;2247;42.666;23.292;2024-01-25T01:40:56;23.13;;;11.57;;
4468;SDS011;2247;42.666;23.292;2024-01-25T01:43:23;17.53;;;11.00;;
4468;SDS011;2247;42.666;23.292;2024-01-25T01:45:50;14.53;;;9.57;;
4468;SDS011;2247;42.666;23.292;2024-01-25T01:48:17;14.93;;;7.63;;
4468;SDS011;2247;42.666;23.292;2024-01-25T01:50:44;12.20;;;6.57;;
4468;SDS011;2247;42.666;23.292;2024-01-25T01:53:13;11.27;;;5.83;;
4468;SDS011;2247;42.666;23.292;2024-01-25T01:55:40;7.13;;;3.87;;
4468;SDS011;2247;42.666;23.292;2024-01-25T01:58:08;5.47;;;2.90;;
4468;SDS011;2247;42.666;23.292;2024-01-25T02:00:35;3.00;;;2.40;;
4468;SDS011;2247;42.666;23.292;2024-01-25T02:03:04;3.47;;;2.00;;
4468;SDS011;2247;42.666;23.292;2024-01-25T02:05:31;2.80;;;1.77;;
4468;SDS011;2247;42.666;23.292;2024-01-25T02:07:58;2.13;;;1.53;;
4468;SDS011;2247;42.666;23.292;2024-01-25T02:10:26;1.73;;;1.53;;
4468;SDS011;2247;42.666;23.292;2024-01-25T02:12:53;4.20;;;1.90;;
4468;SDS011;2247;42.666;23.292;2024-01-25T02:15:20;2.20;;;1.50;;
4468;SDS011;2247;42.666;23.292;2024-01-25T02:17:47;1.83;;;1.40;;
4468;SDS011;2247;42.666;23.292;2024-01-25T02:20:14;3.40;;;1.80;;
4468;SDS011;2247;42.666;23.292;2024-01-25T02:22:45;2.77;;;1.80;;
4468;SDS011;2247;42.666;23.292;2024-01-25T02:25:12;2.37;;;1.50;;
4468;SDS011;2247;42.666;23.292;2024-01-25T02:27:40;2.13;;;1.83;;
4468;SDS011;2247;42.666;23.292;2024-01-25T02:30:07;2.27;;;1.80;;
4468;SDS011;2247;42.666;23.292;2024-01-25T02:32:34;4.60;;;2.20;;
4468;SDS011;2247;42.666;23.292;2024-01-25T02:35:01;5.07;;;3.03;;
4468;SDS011;2247;42.666;23.292;2024-01-25T02:37:28;3.43;;;2.50;;
4468;SDS011;2247;42.666;23.292;2024-01-25T02:39:57;2.77;;;2.47;;
4468;SDS011;2247;42.666;23.292;2024-01-25T02:42:24;2.73;;;2.40;;
4468;SDS011;2247;42.666;23.292;2024-01-25T02:44:51;5.10;;;2.40;;
4468;SDS011;2247;42.666;23.292;2024-01-25T02:47:17;4.00;;;2.53;;
4468;SDS011;2247;42.666;23.292;2024-01-25T02:49:44;3.50;;;2.23;;
4468;SDS011;2247;42.666;23.292;2024-01-25T02:52:11;4.10;;;2.20;;
4468;SDS011;2247;42.666;23.292;2024-01-25T02:54:38;3.67;;;2.43;;
4468;SDS011;2247;42.666;23.292;2024-01-25T02:57:07;2.63;;;1.97;;
4468;SDS011;2247;42.666;23.292;2024-01-25T02:59:33;5.10;;;2.50;;
4468;SDS011;2247;42.666;23.292;2024-01-25T03:02:00;2.43;;;2.00;;
4468;SDS011;2247;42.666;23.292;2024-01-25T03:04:27;2.80;;;2.20;;
4468;SDS011;2247;42.666;23.292;2024-01-25T03:06:54;3.60;;;1.70;;
4468;SDS011;2247;42.666;23.292;2024-01-25T03:09:21;1.70;;;1.20;;
4468;SDS011;2247;42.666;23.292;2024-01-25T03:11:49;1.23;;;1.10;;
4468;SDS011;2247;42.666;23.292;2024-01-25T03:14:17;3.60;;;1.60;;
4468;SDS011;2247;42.666;23.292;2024-01-25T03:16:44;2.80;;;1.07;;
4468;SDS011;2247;42.666;23.292;2024-01-25T03:19:11;3.60;;;1.03;;
4468;SDS011;2247;42.666;23.292;2024-01-25T03:21:38;1.20;;;1.10;;
4468;SDS011;2247;42.666;23.292;2024-01-25T03:24:06;1.00;;;0.90;;
4468;SDS011;2247;42.666;23.292;2024-01-25T03:26:33;1.30;;;0.80;;
4468;SDS011;2247;42.666;23.292;2024-01-25T03:29:00;1.00;;;0.90;;
4468;SDS011;2247;42.666;23.292;2024-01-25T03:31:28;1.00;;;0.90;;
4468;SDS011;2247;42.666;23.292;2024-01-25T03:33:55;1.80;;;1.10;;
4468;SDS011;2247;42.666;23.292;2024-01-25T03:36:22;2.10;;;0.90;;
4468;SDS011;2247;42.666;23.292;2024-01-25T03:38:49;1.13;;;0.90;;
4468;SDS011;2247;42.666;23.292;2024-01-25T03:41:15;0.80;;;0.80;;
4468;SDS011;2247;42.666;23.292;2024-01-25T03:43:42;4.17;;;1.07;;
4468;SDS011;2247;42.666;23.292;2024-01-25T03:46:10;1.37;;;0.70;;
4468;SDS011;2247;42.666;23.292;2024-01-25T03:48:38;0.90;;;0.90;;
4468;SDS011;2247;42.666;23.292;2024-01-25T03:51:05;1.07;;;0.90;;
4468;SDS011;2247;42.666;23.292;2024-01-25T03:53:32;1.30;;;0.87;;
4468;SDS011;2247;42.666;23.292;2024-01-25T03:55:59;1.53;;;0.93;;
4468;SDS011;2247;42.666;23.292;2024-01-25T03:58:26;2.03;;;1.13;;
4468;SDS011;2247;42.666;23.292;2024-01-25T04:00:53;5.27;;;1.00;;
4468;SDS011;2247;42.666;23.292;2024-01-25T04:03:20;1.67;;;1.07;;
4468;SDS011;2247;42.666;23.292;2024-01-25T04:05:48;0.93;;;0.93;;
4468;SDS011;2247;42.666;23.292;2024-01-25T04:08:15;2.70;;;1.30;;
4468;SDS011;2247;42.666;23.292;2024-01-25T04:10:42;2.10;;;1.17;;
4468;SDS011;2247;42.666;23.292;2024-01-25T04:13:09;1.20;;;1.10;;
4468;SDS011;2247;42.666;23.292;2024-01-25T04:15:36;0.90;;;0.90;;
4468;SDS011;2247;42.666;23.292;2024-01-25T04:18:03;2.30;;;1.60;;
4468;SDS011;2247;42.666;23.292;2024-01-25T04:20:30;0.93;;;0.90;;
4468;SDS011;2247;42.666;23.292;2024-01-25T04:23:00;2.07;;;1.10;;
4468;SDS011;2247;42.666;23.292;2024-01-25T04:25:28;2.37;;;1.87;;
4468;SDS011;2247;42.666;23.292;2024-01-25T04:27:55;1.60;;;1.40;;
4468;SDS011;2247;42.666;23.292;2024-01-25T04:30:21;1.60;;;1.07;;
4468;SDS011;2247;42.666;23.292;2024-01-25T04:32:48;1.33;;;1.20;;
4468;SDS011;2247;42.666;23.292;2024-01-25T04:35:15;2.20;;;1.17;;
4468;SDS011;2247;42.666;23.292;2024-01-25T04:37:42;1.80;;;1.20;;
4468;SDS011;2247;42.666;23.292;2024-01-25T04:40:11;2.13;;;1.50;;
4468;SDS011;2247;42.666;23.292;2024-01-25T04:42:38;1.17;;;1.00;;
4468;SDS011;2247;42.666;23.292;2024-01-25T04:45:05;3.13;;;1.20;;
4468;SDS011;2247;42.666;23.292;2024-01-25T04:47:33;3.03;;;1.73;;
4468;SDS011;2247;42.666;23.292;2024-01-25T04:50:00;3.03;;;1.27;;
4468;SDS011;2247;42.666;23.292;2024-01-25T04:52:27;2.63;;;1.40;;
4468;SDS011;2247;42.666;23.292;2024-01-25T04:54:53;1.20;;;1.10;;
4468;SDS011;2247;42.666;23.292;2024-01-25T04:57:22;2.23;;;1.80;;
4468;SDS011;2247;42.666;23.292;2024-01-25T04:59:49;2.07;;;1.60;;
4468;SDS011;2247;42.666;23.292;2024-01-25T05:02:15;3.00;;;2.10;;
4468;SDS011;2247;42.666;23.292;2024-01-25T05:04:42;1.93;;;1.60;;
4468;SDS011;2247;42.666;23.292;2024-01-25T05:07:09;2.70;;;2.03;;
4468;SDS011;2247;42.666;23.292;2024-01-25T05:09:36;4.70;;;2.00;;
4468;SDS011;2247;42.666;23.292;2024-01-25T05:12:03;2.60;;;1.83;;
4468;SDS011;2247;42.666;23.292;2024-01-25T05:14:32;2.57;;;1.73;;
4468;SDS011;2247;42.666;23.292;2024-01-25T05:16:59;4.00;;;1.80;;
4468;SDS011;2247;42.666;23.292;2024-01-25T05:19:26;3.37;;;1.50;;
4468;SDS011;2247;42.666;23.292;2024-01-25T05:21:53;2.10;;;1.23;;
4468;SDS011;2247;42.666;23.292;2024-01-25T05:24:21;4.43;;;1.23;;
4468;SDS011;2247;42.666;23.292;2024-01-25T05:26:48;2.30;;;1.00;;
4468;SDS011;2247;42.666;23.292;2024-01-25T05:29:15;2.70;;;1.40;;
4468;SDS011;2247;42.666;23.292;2024-01-25T05:31:43;2.13;;;1.10;;
4468;SDS011;2247;42.666;23.292;2024-01-25T05:34:10;1.87;;;1.20;;
4468;SDS011;2247;42.666;23.292;2024-01-25T05:36:37;2.80;;;1.50;;
4468;SDS011;2247;42.666;23.292;2024-01-25T05:39:04;1.87;;;1.40;;
4468;SDS011;2247;42.666;23.292;2024-01-25T05:41:32;3.43;;;1.50;;
4468;SDS011;2247;42.666;23.292;2024-01-25T05:43:59;2.67;;;1.50;;
4468;SDS011;2247;42.666;23.292;2024-01-25T05:46:26;1.40;;;1.20;;
4468;SDS011;2247;42.666;23.292;2024-01-25T05:48:55;3.33;;;1.50;;
4468;SDS011;2247;42.666;23.292;2024-01-25T05:51:22;3.60;;;1.60;;
4468;SDS011;2247;42.666;23.292;2024-01-25T05:53:49;4.07;;;1.30;;
4468;SDS011;2247;42.666;23.292;2024-01-25T05:56:16;2.20;;;1.40;;
4468;SDS011;2247;42.666;23.292;2024-01-25T05:58:43;4.07;;;1.57;;
4468;SDS011;2247;42.666;23.292;2024-01-25T06:01:10;4.80;;;2.23;;
4468;SDS011;2247;42.666;23.292;2024-01-25T06:03:37;6.10;;;2.00;;
4468;SDS011;2247;42.666;23.292;2024-01-25T06:06:05;2.43;;;1.73;;
4468;SDS011;2247;42.666;23.292;2024-01-25T06:08:33;3.27;;;1.60;;
4468;SDS011;2247;42.666;23.292;2024-01-25T06:11:00;1.67;;;1.57;;
4468;SDS011;2247;42.666;23.292;2024-01-25T06:13:27;4.23;;;2.17;;
4468;SDS011;2247;42.666;23.292;2024-01-25T06:15:54;10.43;;;2.20;;
4468;SDS011;2247;42.666;23.292;2024-01-25T06:18:21;4.73;;;1.73;;
4468;SDS011;2247;42.666;23.292;2024-01-25T06:20:48;4.13;;;1.80;;
4468;SDS011;2247;42.666;23.292;2024-01-25T06:23:18;2.40;;;2.10;;
4468;SDS011;2247;42.666;23.292;2024-01-25T06:25:44;2.07;;;1.60;;
4468;SDS011;2247;42.666;23.292;2024-01-25T06:28:11;3.33;;;1.90;;
4468;SDS011;2247;42.666;23.292;2024-01-25T06:30:38;4.10;;;1.80;;
4468;SDS011;2247;42.666;23.292;2024-01-25T06:33:05;2.90;;;1.63;;
4468;SDS011;2247;42.666;23.292;2024-01-25T06:35:33;6.67;;;2.13;;
4468;SDS011;2247;42.666;23.292;2024-01-25T06:38:00;2.70;;;1.90;;
4468;SDS011;2247;42.666;23.292;2024-01-25T06:40:28;2.50;;;1.87;;
4468;SDS011;2247;42.666;23.292;2024-01-25T06:42:55;3.93;;;1.80;;
4468;SDS011;2247;42.666;23.292;2024-01-25T06:45:22;3.30;;;1.63;;
4468;SDS011;2247;42.666;23.292;2024-01-25T06:47:49;6.23;;;1.90;;
4468;SDS011;2247;42.666;23.292;2024-01-25T06:50:16;3.90;;;2.20;;
4468;SDS011;2247;42.666;23.292;2024-01-25T06:52:43;7.13;;;2.67;;
4468;SDS011;2247;42.666;23.292;2024-01-25T06:55:10;5.10;;;1.87;;
4468;SDS011;2247;42.666;23.292;2024-01-25T06:57:38;4.67;;;1.80;;
4468;SDS011;2247;42.666;23.292;2024-01-25T07:00:06;9.63;;;2.20;;
4468;SDS011;2247;42.666;23.292;2024-01-25T07:02:36;6.37;;;2.23;;
4468;SDS011;2247;42.666;23.292;2024-01-25T07:05:03;2.90;;;2.03;;
4468;SDS011;2247;42.666;23.292;2024-01-25T07:07:30;15.63;;;2.43;;
4468;SDS011;2247;42.666;23.292;2024-01-25T07:09:58;4.00;;;1.90;;
4468;SDS011;2247;42.666;23.292;2024-01-25T07:12:25;5.10;;;2.47;;
4468;SDS011;2247;42.666;23.292;2024-01-25T07:14:54;5.23;;;1.97;;
4468;SDS011;2247;42.666;23.292;2024-01-25T07:17:21;4.03;;;2.00;;
4468;SDS011;2247;42.666;23.292;2024-01-25T07:19:48;5.37;;;2.40;;
4468;SDS011;2247;42.666;23.292;2024-01-25T07:22:15;8.50;;;2.60;;
4468;SDS011;2247;42.666;23.292;2024-01-25T07:24:43;5.20;;;2.20;;
4468;SDS011;2247;42.666;23.292;2024-01-25T07:27:11;6.50;;;2.50;;
4468;SDS011;2247;42.666;23.292;2024-01-25T07:29:37;3.73;;;2.20;;
4468;SDS011;2247;42.666;23.292;2024-01-25T07:32:06;5.87;;;2.23;;
4468;SDS011;2247;42.666;23.292;2024-01-25T07:34:33;7.83;;;2.73;;
4468;SDS011;2247;42.666;23.292;2024-01-25T07:37:00;7.60;;;2.20;;
4468;SDS011;2247;42.666;23.292;2024-01-25T07:39:27;5.37;;;2.30;;
4468;SDS011;2247;42.666;23.292;2024-01-25T07:41:54;9.17;;;3.00;;
4468;SDS011;2247;42.666;23.292;2024-01-25T07:44:21;4.90;;;2.07;;
4468;SDS011;2247;42.666;23.292;2024-01-25T07:46:48;8.40;;;2.50;;
4468;SDS011;2247;42.666;23.292;2024-01-25T07:49:17;2.70;;;1.93;;
4468;SDS011;2247;42.666;23.292;2024-01-25T07:51:43;4.97;;;2.87;;
4468;SDS011;2247;42.666;23.292;2024-01-25T07:54:10;8.47;;;2.63;;
4468;SDS011;2247;42.666;23.292;2024-01-25T07:56:38;6.50;;;3.07;;
4468;SDS011;2247;42.666;23.292;2024-01-25T07:59:05;9.43;;;3.53;;
4468;SDS011;2247;42.666;23.292;2024-01-25T08:01:32;5.40;;;2.67;;
4468;SDS011;2247;42.666;23.292;2024-01-25T08:03:59;6.97;;;2.83;;
4468;SDS011;2247;42.666;23.292;2024-01-25T08:06:27;7.83;;;2.70;;
4468;SDS011;2247;42.666;23.292;2024-01-25T08:08:54;16.87;;;3.17;;
4468;SDS011;2247;42.666;23.292;2024-01-25T08:11:21;12.87;;;2.87;;
4468;SDS011;2247;42.666;23.292;2024-01-25T08:13:49;7.53;;;2.70;;
4468;SDS011;2247;42.666;23.292;2024-01-25T08:16:16;11.80;;;3.10;;
4468;SDS011;2247;42.666;23.292;2024-01-25T08:18:44;5.80;;;2.63;;
4468;SDS011;2247;42.666;23.292;2024-01-25T08:21:11;6.87;;;3.30;;
4468;SDS011;2247;42.666;23.292;2024-01-25T08:23:40;16.13;;;3.00;;
4468;SDS011;2247;42.666;23.292;2024-01-25T08:26:08;3.53;;;2.40;;
4468;SDS011;2247;42.666;23.292;2024-01-25T08:28:38;6.10;;;2.50;;
4468;SDS011;2247;42.666;23.292;2024-01-25T08:31:05;6.03;;;2.10;;
4468;SDS011;2247;42.666;23.292;2024-01-25T08:33:32;5.10;;;2.47;;
4468;SDS011;2247;42.666;23.292;2024-01-25T08:35:59;7.30;;;2.17;;
4468;SDS011;2247;42.666;23.292;2024-01-25T08:38:27;10.30;;;2.77;;
4468;SDS011;2247;42.666;23.292;2024-01-25T08:40:55;8.13;;;2.80;;
4468;SDS011;2247;42.666;23.292;2024-01-25T08:43:22;4.37;;;2.30;;
4468;SDS011;2247;42.666;23.292;2024-01-25T08:45:49;4.43;;;2.50;;
4468;SDS011;2247;42.666;23.292;2024-01-25T08:48:16;4.43;;;2.30;;
4468;SDS011;2247;42.666;23.292;2024-01-25T08:50:43;5.60;;;2.80;;
4468;SDS011;2247;42.666;23.292;2024-01-25T08:53:10;5.37;;;2.20;;
4468;SDS011;2247;42.666;23.292;2024-01-25T08:55:39;5.03;;;2.10;;
4468;SDS011;2247;42.666;23.292;2024-01-25T08:58:09;9.47;;;2.77;;
4468;SDS011;2247;42.666;23.292;2024-01-25T09:00:36;6.83;;;2.40;;
4468;SDS011;2247;42.666;23.292;2024-01-25T09:03:03;4.50;;;2.60;;
4468;SDS011;2247;42.666;23.292;2024-01-25T09:05:31;6.53;;;2.47;;
4468;SDS011;2247;42.666;23.292;2024-01-25T09:07:59;6.50;;;2.70;;
4468;SDS011;2247;42.666;23.292;2024-01-25T09:10:27;5.00;;;2.27;;
4468;SDS011;2247;42.666;23.292;2024-01-25T09:12:54;10.97;;;2.63;;
4468;SDS011;2247;42.666;23.292;2024-01-25T09:15:23;9.03;;;2.80;;
4468;SDS011;2247;42.666;23.292;2024-01-25T09:17:50;15.40;;;2.87;;
4468;SDS011;2247;42.666;23.292;2024-01-25T09:20:17;11.10;;;3.40;;
4468;SDS011;2247;42.666;23.292;2024-01-25T09:22:45;7.63;;;3.33;;
4468;SDS011;2247;42.666;23.292;2024-01-25T09:25:12;7.30;;;3.40;;
4468;SDS011;2247;42.666;23.292;2024-01-25T09:27:39;8.53;;;3.50;;
4468;SDS011;2247;42.666;23.292;2024-01-25T09:30:07;6.13;;;3.03;;
4468;SDS011;2247;42.666;23.292;2024-01-25T09:32:36;5.90;;;2.83;;
4468;SDS011;2247;42.666;23.292;2024-01-25T09:35:03;5.00;;;3.03;;
4468;SDS011;2247;42.666;23.292;2024-01-25T09:37:31;4.77;;;2.60;;
4468;SDS011;2247;42.666;23.292;2024-01-25T09:39:58;8.00;;;3.07;;
4468;SDS011;2247;42.666;23.292;2024-01-25T09:42:25;5.77;;;2.50;;
4468;SDS011;2247;42.666;23.292;2024-01-25T09:44:52;7.10;;;2.77;;
4468;SDS011;2247;42.666;23.292;2024-01-25T09:47:20;8.03;;;3.30;;
4468;SDS011;2247;42.666;23.292;2024-01-25T09:49:49;31.00;;;5.90;;
4468;SDS011;2247;42.666;23.292;2024-01-25T09:52:17;8.93;;;3.17;;
4468;SDS011;2247;42.666;23.292;2024-01-25T09:54:51;7.20;;;2.67;;
4468;SDS011;2247;42.666;23.292;2024-01-25T09:57:20;8.10;;;3.20;;
4468;SDS011;2247;42.666;23.292;2024-01-25T09:59:52;5.97;;;2.40;;
4468;SDS011;2247;42.666;23.292;2024-01-25T10:02:20;8.17;;;2.77;;
4468;SDS011;2247;42.666;23.292;2024-01-25T10:04:49;5.30;;;2.80;;
4468;SDS011;2247;42.666;23.292;2024-01-25T10:07:17;11.53;;;3.70;;
4468;SDS011;2247;42.666;23.292;2024-01-25T10:09:59;7.40;;;3.43;;
4468;SDS011;2247;42.666;23.292;2024-01-25T10:12:26;9.43;;;2.63;;
4468;SDS011;2247;42.666;23.292;2024-01-25T10:14:52;8.03;;;3.37;;
4468;SDS011;2247;42.666;23.292;2024-01-25T10:17:19;4.67;;;2.77;;
4468;SDS011;2247;42.666;23.292;2024-01-25T10:19:46;25.30;;;4.17;;
4468;SDS011;2247;42.666;23.292;2024-01-25T10:22:15;9.77;;;3.33;;
4468;SDS011;2247;42.666;23.292;2024-01-25T10:24:42;7.27;;;3.00;;
4468;SDS011;2247;42.666;23.292;2024-01-25T10:27:09;10.10;;;3.03;;
4468;SDS011;2247;42.666;23.292;2024-01-25T10:29:37;16.70;;;3.60;;
4468;SDS011;2247;42.666;23.292;2024-01-25T10:32:05;7.37;;;3.07;;
4468;SDS011;2247;42.666;23.292;2024-01-25T10:34:34;9.93;;;4.07;;
4468;SDS011;2247;42.666;23.292;2024-01-25T10:37:02;7.27;;;3.57;;
4468;SDS011;2247;42.666;23.292;2024-01-25T10:39:33;8.67;;;3.20;;
4468;SDS011;2247;42.666;23.292;2024-01-25T10:42:00;6.40;;;3.13;;
4468;SDS011;2247;42.666;23.292;2024-01-25T10:44:27;6.97;;;3.10;;
4468;SDS011;2247;42.666;23.292;2024-01-25T10:46:54;6.67;;;3.27;;
4468;SDS011;2247;42.666;23.292;2024-01-25T10:49:22;7.97;;;2.87;;
4468;SDS011;2247;42.666;23.292;2024-01-25T10:51:51;10.37;;;3.90;;
4468;SDS011;2247;42.666;23.292;2024-01-25T10:54:19;5.37;;;3.03;;
4468;SDS011;2247;42.666;23.292;2024-01-25T10:56:48;6.53;;;3.30;;
4468;SDS011;2247;42.666;23.292;2024-01-25T10:59:15;4.17;;;2.50;;
4468;SDS011;2247;42.666;23.292;2024-01-25T11:01:43;7.43;;;3.07;;
4468;SDS011;2247;42.666;23.292;2024-01-25T11:04:12;8.27;;;2.87;;
4468;SDS011;2247;42.666;23.292;2024-01-25T11:06:39;8.20;;;3.10;;
4468;SDS011;2247;42.666;23.292;2024-01-25T11:09:06;7.47;;;2.90;;
4468;SDS011;2247;42.666;23.292;2024-01-25T11:11:35;6.33;;;3.20;;
4468;SDS011;2247;42.666;23.292;2024-01-25T11:14:04;8.43;;;3.00;;
4468;SDS011;2247;42.666;23.292;2024-01-25T11:16:38;12.93;;;3.60;;
4468;SDS011;2247;42.666;23.292;2024-01-25T11:19:07;7.87;;;3.00;;
4468;SDS011;2247;42.666;23.292;2024-01-25T11:21:39;5.80;;;3.20;;
4468;SDS011;2247;42.666;23.292;2024-01-25T11:24:11;12.23;;;3.43;;
4468;SDS011;2247;42.666;23.292;2024-01-25T11:26:38;16.23;;;3.93;;
4468;SDS011;2247;42.666;23.292;2024-01-25T11:29:07;11.50;;;3.50;;
4468;SDS011;2247;42.666;23.292;2024-01-25T11:31:34;7.67;;;3.30;;
4468;SDS011;2247;42.666;23.292;2024-01-25T11:34:01;8.77;;;3.40;;
4468;SDS011;2247;42.666;23.292;2024-01-25T11:36:29;10.10;;;3.67;;
4468;SDS011;2247;42.666;23.292;2024-01-25T11:38:56;5.73;;;3.33;;
4468;SDS011;2247;42.666;23.292;2024-01-25T11:41:23;9.23;;;3.33;;
4468;SDS011;2247;42.666;23.292;2024-01-25T11:43:51;8.60;;;3.33;;
4468;SDS011;2247;42.666;23.292;2024-01-25T11:46:21;8.63;;;2.73;;
4468;SDS011;2247;42.666;23.292;2024-01-25T11:48:48;5.93;;;2.63;;
4468;SDS011;2247;42.666;23.292;2024-01-25T11:51:15;6.93;;;3.40;;
4468;SDS011;2247;42.666;23.292;2024-01-25T11:53:42;7.97;;;2.50;;
4468;SDS011;2247;42.666;23.292;2024-01-25T11:56:10;6.07;;;2.47;;
4468;SDS011;2247;42.666;23.292;2024-01-25T11:58:41;5.03;;;2.90;;
4468;SDS011;2247;42.666;23.292;2024-01-25T12:01:09;6.27;;;2.67;;
4468;SDS011;2247;42.666;23.292;2024-01-25T12:03:39;6.77;;;2.53;;
4468;SDS011;2247;42.666;23.292;2024-01-25T12:06:06;5.10;;;2.90;;
4468;SDS011;2247;42.666;23.292;2024-01-25T12:08:34;10.83;;;2.70;;
4468;SDS011;2247;42.666;23.292;2024-01-25T12:11:04;11.30;;;3.63;;
4468;SDS011;2247;42.666;23.292;2024-01-25T12:13:35;6.80;;;2.70;;
4468;SDS011;2247;42.666;23.292;2024-01-25T12:16:06;7.67;;;3.70;;
4468;SDS011;2247;42.666;23.292;2024-01-25T12:18:33;7.87;;;2.80;;
4468;SDS011;2247;42.666;23.292;2024-01-25T12:21:04;10.60;;;4.00;;
4468;SDS011;2247;42.666;23.292;2024-01-25T12:23:32;6.17;;;2.57;;
4468;SDS011;2247;42.666;23.292;2024-01-25T12:26:00;6.13;;;2.90;;
4468;SDS011;2247;42.666;23.292;2024-01-25T12:28:28;8.60;;;2.90;;
4468;SDS011;2247;42.666;23.292;2024-01-25T12:30:57;8.20;;;2.80;;
4468;SDS011;2247;42.666;23.292;2024-01-25T12:33:24;7.13;;;2.40;;
4468;SDS011;2247;42.666;23.292;2024-01-25T12:35:51;7.73;;;3.03;;
4468;SDS011;2247;42.666;23.292;2024-01-25T12:38:20;6.17;;;2.43;;
4468;SDS011;2247;42.666;23.292;2024-01-25T12:40:48;7.63;;;2.50;;
4468;SDS011;2247;42.666;23.292;2024-01-25T12:43:15;4.00;;;2.40;;
4468;SDS011;2247;42.666;23.292;2024-01-25T12:45:43;5.70;;;2.57;;
4468;SDS011;2247;42.666;23.292;2024-01-25T12:48:10;6.93;;;2.80;;
4468;SDS011;2247;42.666;23.292;2024-01-25T12:50:37;5.70;;;3.03;;
4468;SDS011;2247;42.666;23.292;2024-01-25T12:53:05;7.40;;;2.77;;
4468;SDS011;2247;42.666;23.292;2024-01-25T12:55:34;7.80;;;2.90;;
4468;SDS011;2247;42.666;23.292;2024-01-25T12:58:01;6.33;;;2.50;;
4468;SDS011;2247;42.666;23.292;2024-01-25T13:00:29;8.67;;;2.70;;
4468;SDS011;2247;42.666;23.292;2024-01-25T13:02:56;10.70;;;2.90;;
4468;SDS011;2247;42.666;23.292;2024-01-25T13:05:23;8.10;;;2.33;;
4468;SDS011;2247;42.666;23.292;2024-01-25T13:07:50;26.73;;;3.80;;
4468;SDS011;2247;42.666;23.292;2024-01-25T13:10:17;4.60;;;2.40;;
4468;SDS011;2247;42.666;23.292;2024-01-25T13:12:45;6.90;;;2.60;;
4468;SDS011;2247;42.666;23.292;2024-01-25T13:15:12;7.00;;;2.37;;
4468;SDS011;2247;42.666;23.292;2024-01-25T13:17:40;10.27;;;2.50;;
4468;SDS011;2247;42.666;23.292;2024-01-25T13:20:07;5.53;;;2.30;;
4468;SDS011;2247;42.666;23.292;2024-01-25T13:22:34;6.60;;;2.80;;
4468;SDS011;2247;42.666;23.292;2024-01-25T13:25:01;6.70;;;2.90;;
4468;SDS011;2247;42.666;23.292;2024-01-25T13:27:29;6.33;;;2.73;;
4468;SDS011;2247;42.666;23.292;2024-01-25T13:29:57;8.83;;;3.30;;
4468;SDS011;2247;42.666;23.292;2024-01-25T13:32:24;10.10;;;2.70;;
4468;SDS011;2247;42.666;23.292;2024-01-25T13:34:51;6.07;;;2.83;;
4468;SDS011;2247;42.666;23.292;2024-01-25T13:37:18;5.80;;;2.50;;
4468;SDS011;2247;42.666;23.292;2024-01-25T13:39:46;9.00;;;2.70;;
4468;SDS011;2247;42.666;23.292;2024-01-25T13:42:13;7.73;;;2.90;;
4468;SDS011;2247;42.666;23.292;2024-01-25T13:44:40;8.73;;;2.93;;
4468;SDS011;2247;42.666;23.292;2024-01-25T13:47:08;5.43;;;2.43;;
4468;SDS011;2247;42.666;23.292;2024-01-25T13:49:35;12.10;;;3.00;;
4468;SDS011;2247;42.666;23.292;2024-01-25T13:52:02;9.13;;;2.70;;
4468;SDS011;2247;42.666;23.292;2024-01-25T13:54:30;9.20;;;2.63;;
4468;SDS011;2247;42.666;23.292;2024-01-25T13:56:57;9.27;;;2.40;;
4468;SDS011;2247;42.666;23.292;2024-01-25T13:59:24;8.23;;;2.63;;
4468;SDS011;2247;42.666;23.292;2024-01-25T14:01:51;5.50;;;2.50;;
4468;SDS011;2247;42.666;23.292;2024-01-25T14:04:19;7.50;;;2.77;;
4468;SDS011;2247;42.666;23.292;2024-01-25T14:06:46;7.10;;;2.43;;
4468;SDS011;2247;42.666;23.292;2024-01-25T14:09:13;5.30;;;2.23;;
4468;SDS011;2247;42.666;23.292;2024-01-25T14:11:40;9.10;;;2.80;;
4468;SDS011;2247;42.666;23.292;2024-01-25T14:14:07;6.33;;;2.83;;
4468;SDS011;2247;42.666;23.292;2024-01-25T14:16:34;10.30;;;2.87;;
4468;SDS011;2247;42.666;23.292;2024-01-25T14:19:02;7.50;;;3.20;;
4468;SDS011;2247;42.666;23.292;2024-01-25T14:21:31;7.57;;;2.93;;
4468;SDS011;2247;42.666;23.292;2024-01-25T14:23:58;5.77;;;2.70;;
4468;SDS011;2247;42.666;23.292;2024-01-25T14:26:25;10.63;;;3.13;;
4468;SDS011;2247;42.666;23.292;2024-01-25T14:28:52;11.70;;;2.77;;
4468;SDS011;2247;42.666;23.292;2024-01-25T14:31:19;9.60;;;3.63;;
4468;SDS011;2247;42.666;23.292;2024-01-25T14:33:46;7.00;;;3.70;;
4468;SDS011;2247;42.666;23.292;2024-01-25T14:36:13;8.30;;;3.20;;
4468;SDS011;2247;42.666;23.292;2024-01-25T14:38:41;7.00;;;2.67;;
4468;SDS011;2247;42.666;23.292;2024-01-25T14:41:08;5.40;;;2.53;;
4468;SDS011;2247;42.666;23.292;2024-01-25T14:43:37;8.23;;;3.20;;
4468;SDS011;2247;42.666;23.292;2024-01-25T14:46:04;9.90;;;2.93;;
4468;SDS011;2247;42.666;23.292;2024-01-25T14:48:32;7.17;;;2.57;;
4468;SDS011;2247;42.666;23.292;2024-01-25T14:50:59;9.30;;;3.03;;
4468;SDS011;2247;42.666;23.292;2024-01-25T14:53:26;14.83;;;3.37;;
4468;SDS011;2247;42.666;23.292;2024-01-25T14:55:54;6.53;;;2.77;;
4468;SDS011;2247;42.666;23.292;2024-01-25T14:58:21;8.93;;;2.90;;
4468;SDS011;2247;42.666;23.292;2024-01-25T15:00:49;9.17;;;2.60;;